»·PEaware :: N75NX KSLC-KEGE

N75NX :: KSLC-KEGE

FLIGHT INFORMATION

Flight Status: Arrived
Operator: Privately registered:
United States
More flights under this callsign
Pilot: Leighton M. (11234)
Aircraft: ECLIPSE 500
(EA50)
More flights by this aircraft type
Origin: KSLC Salt Lake City Intl
United States
Destination: KEGE Eagle Co Regl
United States
More flights between these airports :: More routes between these airports
Route: +RUGGD1 EKR JESIE RLG
File this flight plan on PilotEdge
Remarks:
Altitude:
(Current/Filed)
29,000ft
Speed:
(Current/Filed)
320kts
Departed: 11-Jan-19 05:05 PM
Arrived: 11-Jan-19 06:22 PM
Distance/Time
Traveled:
242nm/1:17
Distance/Time
To Go:
Arrived

Flight Plot

Page will automatically refresh every two minutes.

Flight plan parsing failed; only flown route is shown


Map Options




Map Legend


Flown Route
Filed Route
Departure Airport
Arrival Airport
Navaid (VOR, NDB)
Fix

Horizontal Profiles

Position Reports

Time Latitude Longitude Heading Altitude Ground
Speed
11-Jan-19 16:40 40.775671 -111.959392 357 4222ft 0kts
11-Jan-19 16:41 40.775671 -111.959392 357 4222ft 0kts
11-Jan-19 16:42 40.775671 -111.959392 357 4222ft 0kts
11-Jan-19 16:43 40.775671 -111.959392 357 4222ft 0kts
11-Jan-19 16:44 40.775671 -111.959392 357 4222ft 0kts
11-Jan-19 16:45 40.775671 -111.959392 357 4222ft 0kts
11-Jan-19 16:46 40.775671 -111.959392 357 4222ft 0kts
11-Jan-19 16:47 40.775671 -111.959392 357 4222ft 0kts
11-Jan-19 16:48 40.775671 -111.959392 357 4222ft 0kts
11-Jan-19 16:49 40.775671 -111.959392 357 4222ft 0kts
11-Jan-19 16:50 40.775671 -111.959392 357 4222ft 0kts
11-Jan-19 16:51 40.775671 -111.959392 357 4222ft 0kts
11-Jan-19 16:52 40.775671 -111.959392 357 4222ft 0kts
11-Jan-19 16:53 40.775671 -111.959392 357 4222ft 0kts
11-Jan-19 16:54 40.775671 -111.959392 357 4222ft 0kts
11-Jan-19 16:55 40.775671 -111.959392 357 4222ft 0kts
11-Jan-19 16:56 40.775872 -111.959486 301 4222ft 1kts
11-Jan-19 16:57 40.774265 -111.960253 198 4222ft 6kts
11-Jan-19 16:58 40.773126 -111.960623 182 4222ft 0kts
11-Jan-19 16:59 40.772862 -111.960725 216 4222ft 2kts
11-Jan-19 17:00 40.772763 -111.960889 242 4222ft 0kts
11-Jan-19 17:01 40.772763 -111.960889 242 4222ft 0kts
11-Jan-19 17:02 40.772763 -111.960889 242 4222ft 0kts
11-Jan-19 17:03 40.773268 -111.962092 358 4222ft 24kts
11-Jan-19 17:04 40.802439 -111.960959 3 4779ft 142kts
11-Jan-19 17:05 40.837580 -111.963758 356 6875ft 114kts
11-Jan-19 17:06 40.872178 -111.967735 356 8350ft 137kts
11-Jan-19 17:07 40.910378 -111.972768 356 10040ft 139kts
11-Jan-19 17:08 40.948213 -111.978368 356 11583ft 141kts
11-Jan-19 17:09 40.988572 -111.988376 341 12937ft 153kts
11-Jan-19 17:10 41.028292 -112.010817 341 14184ft 162kts
11-Jan-19 17:11 41.070907 -112.023874 42 15248ft 165kts
11-Jan-19 17:12 41.085356 -111.964724 72 16310ft 173kts
11-Jan-19 17:13 41.098624 -111.903291 65 17298ft 173kts
11-Jan-19 17:14 41.114071 -111.845932 65 18212ft 175kts
11-Jan-19 17:15 41.130302 -111.784364 65 19093ft 176kts
11-Jan-19 17:16 41.117811 -111.726432 139 19816ft 213kts
11-Jan-19 17:17 41.068195 -111.682929 139 20548ft 215kts
11-Jan-19 17:18 41.018396 -111.637782 138 21179ft 221kts
11-Jan-19 17:19 40.969105 -111.588790 134 21770ft 223kts
11-Jan-19 17:20 40.920221 -111.537879 134 22356ft 225kts
11-Jan-19 17:21 40.872180 -111.487974 134 22881ft 227kts
11-Jan-19 17:22 40.822501 -111.436400 134 23375ft 228kts
11-Jan-19 17:23 40.784425 -111.374801 98 23828ft 211kts
11-Jan-19 17:24 40.767766 -111.301925 97 24279ft 210kts
11-Jan-19 17:25 40.750565 -111.228122 97 24717ft 211kts
11-Jan-19 17:26 40.733077 -111.153686 97 25140ft 213kts
11-Jan-19 17:27 40.715508 -111.079172 96 25540ft 214kts
11-Jan-19 17:28 40.697931 -111.004117 98 25907ft 216kts
11-Jan-19 17:29 40.679536 -110.928688 99 26258ft 218kts
11-Jan-19 17:30 40.660372 -110.852765 100 26600ft 221kts
11-Jan-19 17:31 40.640346 -110.776118 101 26941ft 222kts
11-Jan-19 17:32 40.619527 -110.699207 101 27248ft 225kts
11-Jan-19 17:33 40.613258 -110.622364 64 27244ft 213kts
11-Jan-19 17:34 40.596145 -110.540415 100 27237ft 242kts
11-Jan-19 17:35 40.575544 -110.455316 99 27236ft 245kts
11-Jan-19 17:36 40.555635 -110.369697 99 27237ft 247kts
11-Jan-19 17:37 40.535040 -110.276198 98 27236ft 294kts
11-Jan-19 17:38 40.514048 -110.165654 98 27231ft 331kts
11-Jan-19 17:39 40.490924 -110.043734 98 27229ft 356kts
11-Jan-19 17:40 40.466392 -109.914926 99 27229ft 371kts
11-Jan-19 17:41 40.440913 -109.781896 99 27230ft 382kts
11-Jan-19 17:42 40.414553 -109.645146 99 27230ft 390kts
11-Jan-19 17:43 40.388784 -109.512775 98 27225ft 340kts
11-Jan-19 17:44 40.367530 -109.403846 97 27232ft 304kts
11-Jan-19 17:45 40.346027 -109.293960 99 27229ft 315kts
11-Jan-19 17:46 40.324115 -109.182919 99 27229ft 314kts
11-Jan-19 17:47 40.302157 -109.071994 100 27229ft 315kts
11-Jan-19 17:48 40.280084 -108.961306 100 27230ft 315kts
11-Jan-19 17:49 40.257815 -108.850537 100 27230ft 315kts
11-Jan-19 17:50 40.235447 -108.739694 100 27230ft 315kts
11-Jan-19 17:51 40.212995 -108.628986 100 27219ft 316kts
11-Jan-19 17:52 40.191326 -108.517965 91 27200ft 312kts
11-Jan-19 17:53 40.183060 -108.404928 91 26464ft 306kts
11-Jan-19 17:54 40.174672 -108.301373 91 25457ft 301kts
11-Jan-19 17:55 40.165670 -108.194321 91 24526ft 296kts
11-Jan-19 17:57 40.156640 -108.088814 91 23742ft 291kts
11-Jan-19 17:58 40.148456 -107.994358 91 22940ft 286kts
11-Jan-19 17:59 40.139826 -107.895814 91 21544ft 281kts
11-Jan-19 18:00 40.131013 -107.795972 91 19971ft 291kts
11-Jan-19 18:01 40.122066 -107.695947 91 18410ft 282kts
11-Jan-19 18:02 40.113360 -107.599511 91 17050ft 271kts
11-Jan-19 18:03 40.098646 -107.500131 98 17017ft 289kts
11-Jan-19 18:04 40.079677 -107.399056 98 17018ft 290kts
11-Jan-19 18:05 40.062055 -107.304732 99 17020ft 290kts
11-Jan-19 18:06 40.044087 -107.208268 99 17016ft 291kts
11-Jan-19 18:07 40.027132 -107.116944 99 17007ft 290kts
11-Jan-19 18:08 40.011273 -107.031225 99 16996ft 290kts
11-Jan-19 18:09 39.995371 -106.940377 99 16993ft 293kts
11-Jan-19 18:10 39.979425 -106.845543 112 16910ft 298kts
11-Jan-19 18:11 39.925355 -106.774068 133 15738ft 257kts
11-Jan-19 18:12 39.881865 -106.712506 130 14376ft 218kts
11-Jan-19 18:13 39.844480 -106.656486 129 13992ft 205kts
11-Jan-19 18:14 39.800198 -106.610879 190 14003ft 214kts
11-Jan-19 18:15 39.742711 -106.628373 195 13531ft 214kts
11-Jan-19 18:15 39.698493 -106.652226 243 12741ft 206kts
11-Jan-19 18:16 39.676276 -106.718529 249 11838ft 194kts
11-Jan-19 18:18 39.661156 -106.790786 260 10820ft 169kts
11-Jan-19 18:19 39.652649 -106.845834 261 9762ft 142kts
11-Jan-19 18:19 39.645663 -106.886258 253 8255ft 160kts
11-Jan-19 18:20 39.640820 -106.936883 262 6548ft 89kts
11-Jan-19 18:21 39.632636 -106.952696 101 6416ft 30kts
11-Jan-19 18:22 39.633883 -106.945214 73 6472ft 48kts
11-Jan-19 18:23 39.637924 -106.933227 75 6548ft 27kts
11-Jan-19 18:24 39.638945 -106.927283 73 6548ft 18kts
11-Jan-19 18:25 39.640991 -106.916100 80 6548ft 31kts
11-Jan-19 18:26 39.641785 -106.909659 89 6548ft 11kts
11-Jan-19 18:27 39.641391 -106.908867 117 6548ft 0kts
11-Jan-19 18:28 39.641391 -106.908867 117 6548ft 0kts
11-Jan-19 18:29 39.641391 -106.908867 117 6548ft 0kts
11-Jan-19 18:30 39.641391 -106.908867 117 6548ft 0kts
11-Jan-19 18:31 39.641391 -106.908867 117 6548ft 0kts
11-Jan-19 18:32 39.641391 -106.908867 117 6548ft 0kts
11-Jan-19 18:33 39.641391 -106.908867 117 6548ft 0kts

Navigation Log

Ident Type
Flight plan parsing failed, navigation log unavailable